This demonstration page uses our WeatherBlox Daily Observations layout. Learn more.

38.88101, -77.10428

Hourly Observations for October 19, 2019

Temp ( °F °C ) Dew Point ( °F °C ) Humidity (%) Winds ( mph kmh ) Pressure ( in mb ) Visibility ( mi km ) Precip ( " mm )
12:52 am 00:52 Clear 48 8.9 38 3.3 68 68 N 7 11 30.03 1017 10 16.09344 0 0
1:52 am 01:52 Mostly Cloudy 48 8.9 39 3.9 71 71 W 6 9 30.06 1018 10 16.09344 0 0
2:52 am 02:52 Partly Cloudy 49 9.4 38 3.3 66 66 NNW 6 9 30.06 1018 10 16.09344 0 0
3:52 am 03:52 Partly Cloudy 48 8.9 38 3.3 68 68 NW 6 9 30.06 1018 10 16.09344 0 0
4:52 am 04:52 Mostly Clear 46 7.8 41 5 83 83 Calm 30.09 1019 10 16.09344 0 0
5:52 am 05:52 Clear 46 7.8 41 5 83 83 NNW 3 6 30.09 1019 10 16.09344 0 0
6:52 am 06:52 Mostly Clear 44 6.7 38 3.3 79 79 NNW 7 11 30.09 1019 10 16.09344 0 0
7:52 am 07:52 Mostly Sunny 47 8.3 39 3.9 74 74 Calm 30.12 1020 10 16.09344 0 0
8:52 am 08:52 Mostly Sunny 50 10 41 5 71 71 NNE 3 6 30.12 1020 10 16.09344 0 0
9:52 am 09:52 Mostly Sunny 54 12.2 40 4.4 59 59 NE 6 9 30.12 1020 10 16.09344 0 0
10:52 am 10:52 Mostly Sunny 57 13.9 40 4.4 53 53 Calm 30.12 1020 10 16.09344 0 0
11:52 am 11:52 Partly Cloudy 61 16.1 41 5 48 48 S 8 13 30.12 1020 10 16.09344 0 0
12:52 pm 12:52 Partly Cloudy 63 17.2 42 5.6 47 47 SSE 10 17 30.09 1019 10 16.09344 0 0
1:52 pm 13:52 Partly Cloudy 65 18.3 41 5 42 42 S 10 17 30.06 1018 10 16.09344 0 0
2:52 pm 14:52 Mostly Cloudy 63 17.2 40 4.4 43 43 SSW 8 13 30.06 1018 10 16.09344 0 0
3:52 pm 15:52 Mostly Cloudy 63 17.2 42 5.6 47 47 S 7 11 30.03 1017 10 16.09344 0 0
4:16 pm 16:16 Mostly Cloudy 63 17.2 43 6.1 48 48 S 7 11 30.06 1018 10 16.09344 0 0
4:52 pm 16:52 Cloudy 63 17.2 42 5.6 47 47 SSW 8 13 30.03 1017 10 16.09344 0 0
5:52 pm 17:52 Cloudy 61 16.1 46 7.8 58 58 S 7 11 30 1016 10 16.09344 0 0
6:52 pm 18:52 Cloudy 60 15.6 46 7.8 60 60 SE 5 7 30 1016 10 16.09344 0 0
7:52 pm 19:52 Cloudy 60 15.6 45 7.2 58 58 SSE 5 7 30 1016 10 16.09344 0 0
8:52 pm 20:52 Cloudy 59 15 47 8.3 64 64 SSE 5 7 30 1016 10 16.09344 0 0
9:52 pm 21:52 Cloudy 58 14.4 47 8.3 67 67 SSE 6 9 30 1016 10 16.09344 0 0
10:52 pm 22:52 Cloudy 58 14.4 47 8.3 67 67 SSE 3 6 30 1016 10 16.09344 0 0
11:52 pm 23:52 Cloudy 57 13.9 48 8.9 72 72 SSE 5 7 30 1016 10 16.09344 0 0

Powered by AerisWeather